sensor_id;sensor_type;location;lat;lon;timestamp;pressure;altitude;pressure_sealevel;temperature;humidity
72892;BME280;61032;50.782;6.818;2022-09-16T00:00:20;100057.59;;;14.85;68.04
72892;BME280;61032;50.782;6.818;2022-09-16T00:01:21;100056.84;;;14.88;67.97
72892;BME280;61032;50.782;6.818;2022-09-16T00:02:21;100062.75;;;14.87;68.22
72892;BME280;61032;50.782;6.818;2022-09-16T00:03:22;100064.28;;;14.84;67.91
72892;BME280;61032;50.782;6.818;2022-09-16T00:04:22;100061.03;;;14.78;68.19
72892;BME280;61032;50.782;6.818;2022-09-16T00:05:23;100066.56;;;14.78;68.30
72892;BME280;61032;50.782;6.818;2022-09-16T00:06:26;100061.09;;;14.82;68.55
72892;BME280;61032;50.782;6.818;2022-09-16T00:07:28;100056.00;;;14.84;68.12
72892;BME280;61032;50.782;6.818;2022-09-16T00:08:28;100062.63;;;14.79;68.31
72892;BME280;61032;50.782;6.818;2022-09-16T00:09:29;100057.72;;;14.69;68.53
72892;BME280;61032;50.782;6.818;2022-09-16T00:10:29;100057.34;;;14.71;68.76
72892;BME280;61032;50.782;6.818;2022-09-16T00:11:31;100061.00;;;14.75;68.57
72892;BME280;61032;50.782;6.818;2022-09-16T00:12:33;100064.16;;;14.77;68.48
72892;BME280;61032;50.782;6.818;2022-09-16T00:13:34;100058.09;;;14.68;68.77
72892;BME280;61032;50.782;6.818;2022-09-16T00:14:34;100061.72;;;14.72;68.55
72892;BME280;61032;50.782;6.818;2022-09-16T00:15:35;100060.50;;;14.69;68.84
72892;BME280;61032;50.782;6.818;2022-09-16T00:16:35;100060.13;;;14.71;68.79
72892;BME280;61032;50.782;6.818;2022-09-16T00:17:36;100057.72;;;14.69;68.73
72892;BME280;61032;50.782;6.818;2022-09-16T00:18:37;100053.28;;;14.65;69.08
72892;BME280;61032;50.782;6.818;2022-09-16T00:19:37;100057.44;;;14.55;69.31
72892;BME280;61032;50.782;6.818;2022-09-16T00:20:49;100056.69;;;14.55;69.09
72892;BME280;61032;50.782;6.818;2022-09-16T00:21:49;100054.28;;;14.53;69.91
72892;BME280;61032;50.782;6.818;2022-09-16T00:22:50;100055.44;;;14.52;69.37
72892;BME280;61032;50.782;6.818;2022-09-16T00:23:50;100054.22;;;14.50;69.42
72892;BME280;61032;50.782;6.818;2022-09-16T00:24:51;100049.78;;;14.45;69.68
72892;BME280;61032;50.782;6.818;2022-09-16T00:25:53;100052.19;;;14.47;69.54
72892;BME280;61032;50.782;6.818;2022-09-16T00:26:54;100058.25;;;14.36;69.83
72892;BME280;61032;50.782;6.818;2022-09-16T00:27:54;100059.06;;;14.37;69.80
72892;BME280;61032;50.782;6.818;2022-09-16T00:28:54;100057.19;;;14.41;69.64
72892;BME280;61032;50.782;6.818;2022-09-16T00:29:54;100055.50;;;14.36;69.72
72892;BME280;61032;50.782;6.818;2022-09-16T00:31:01;100061.09;;;14.40;69.87
72892;BME280;61032;50.782;6.818;2022-09-16T00:32:02;100053.16;;;14.38;69.76
72892;BME280;61032;50.782;6.818;2022-09-16T00:33:02;100057.09;;;14.37;69.74
72892;BME280;61032;50.782;6.818;2022-09-16T00:34:03;100057.81;;;14.34;70.07
72892;BME280;61032;50.782;6.818;2022-09-16T00:35:03;100059.44;;;14.35;70.09
72892;BME280;61032;50.782;6.818;2022-09-16T00:36:10;100051.56;;;14.37;70.06
72892;BME280;61032;50.782;6.818;2022-09-16T00:37:10;100060.31;;;14.39;69.84
72892;BME280;61032;50.782;6.818;2022-09-16T00:38:11;100058.69;;;14.38;70.10
72892;BME280;61032;50.782;6.818;2022-09-16T00:39:11;100049.16;;;14.36;70.09
72892;BME280;61032;50.782;6.818;2022-09-16T00:40:12;100049.06;;;14.29;70.71
72892;BME280;61032;50.782;6.818;2022-09-16T00:41:16;100049.06;;;14.29;70.30
72892;BME280;61032;50.782;6.818;2022-09-16T00:42:18;100053.50;;;14.33;70.30
72892;BME280;61032;50.782;6.818;2022-09-16T00:43:18;100056.25;;;14.33;70.45
72892;BME280;61032;50.782;6.818;2022-09-16T00:44:54;100057.78;;;14.31;70.66
72892;BME280;61032;50.782;6.818;2022-09-16T00:45:58;100055.38;;;14.29;70.56
72892;BME280;61032;50.782;6.818;2022-09-16T00:46:59;100054.69;;;14.36;70.36
72892;BME280;61032;50.782;6.818;2022-09-16T00:48:03;100063.78;;;14.36;70.17
72892;BME280;61032;50.782;6.818;2022-09-16T00:49:10;100053.50;;;14.33;70.26
72892;BME280;61032;50.782;6.818;2022-09-16T00:51:27;100049.28;;;14.20;70.98
72892;BME280;61032;50.782;6.818;2022-09-16T00:52:29;100048.91;;;14.22;71.13
72892;BME280;61032;50.782;6.818;2022-09-16T00:53:30;100050.44;;;14.19;71.14
72892;BME280;61032;50.782;6.818;2022-09-16T00:54:35;100054.38;;;14.18;71.08
72892;BME280;61032;50.782;6.818;2022-09-16T00:55:37;100053.19;;;14.19;71.15
72892;BME280;61032;50.782;6.818;2022-09-16T00:56:40;100050.44;;;14.19;71.29
72892;BME280;61032;50.782;6.818;2022-09-16T00:57:43;100050.16;;;14.24;71.08
72892;BME280;61032;50.782;6.818;2022-09-16T00:58:58;100045.06;;;14.26;70.80
72892;BME280;61032;50.782;6.818;2022-09-16T01:00:04;100046.00;;;14.15;71.35
72892;BME280;61032;50.782;6.818;2022-09-16T01:01:07;100049.50;;;14.12;71.63
72892;BME280;61032;50.782;6.818;2022-09-16T01:02:10;100053.88;;;14.13;71.67
72892;BME280;61032;50.782;6.818;2022-09-16T01:03:12;100051.16;;;14.16;71.82
72892;BME280;61032;50.782;6.818;2022-09-16T01:04:28;100051.59;;;14.18;71.46
72892;BME280;61032;50.782;6.818;2022-09-16T01:05:30;100050.38;;;14.16;71.48
72892;BME280;61032;50.782;6.818;2022-09-16T01:06:35;100047.56;;;14.12;71.75
72892;BME280;61032;50.782;6.818;2022-09-16T01:07:48;100055.84;;;14.12;71.65
72892;BME280;61032;50.782;6.818;2022-09-16T01:08:49;100050.25;;;14.08;71.89
72892;BME280;61032;50.782;6.818;2022-09-16T01:09:49;100058.16;;;14.10;71.92
72892;BME280;61032;50.782;6.818;2022-09-16T01:10:51;100053.88;;;14.13;71.85
72892;BME280;61032;50.782;6.818;2022-09-16T01:11:51;100054.53;;;14.06;71.91
72892;BME280;61032;50.782;6.818;2022-09-16T01:12:57;100060.06;;;14.06;72.31
72892;BME280;61032;50.782;6.818;2022-09-16T01:14:00;100054.09;;;14.04;72.50
72892;BME280;61032;50.782;6.818;2022-09-16T01:15:25;100059.34;;;14.09;72.17
72892;BME280;61032;50.782;6.818;2022-09-16T01:16:33;100066.47;;;14.10;71.92
72892;BME280;61032;50.782;6.818;2022-09-16T01:22:09;100057.22;;;14.02;72.62
72892;BME280;61032;50.782;6.818;2022-09-16T01:28:01;100049.13;;;13.94;73.12
72892;BME280;61032;50.782;6.818;2022-09-16T01:30:31;100058.59;;;13.93;73.03
72892;BME280;61032;50.782;6.818;2022-09-16T01:31:40;100061.34;;;13.93;73.09
72892;BME280;61032;50.782;6.818;2022-09-16T01:33:05;100062.22;;;13.97;73.40
72892;BME280;61032;50.782;6.818;2022-09-16T01:36:23;100052.50;;;14.03;73.09
72892;BME280;61032;50.782;6.818;2022-09-16T01:40:15;100054.38;;;13.99;73.06
72892;BME280;61032;50.782;6.818;2022-09-16T01:45:55;100045.09;;;13.88;74.09
72892;BME280;61032;50.782;6.818;2022-09-16T01:53:19;100053.06;;;13.93;74.07
72892;BME280;61032;50.782;6.818;2022-09-16T01:54:39;100059.34;;;13.90;74.29
72892;BME280;61032;50.782;6.818;2022-09-16T01:57:17;100049.72;;;13.84;74.46
72892;BME280;61032;50.782;6.818;2022-09-16T01:59:40;100048.06;;;13.79;74.92
72892;BME280;61032;50.782;6.818;2022-09-16T02:00:44;100054.28;;;13.76;75.35
72892;BME280;61032;50.782;6.818;2022-09-16T02:01:54;100040.56;;;13.80;75.40
72892;BME280;61032;50.782;6.818;2022-09-16T02:03:17;100047.59;;;13.77;75.35
72892;BME280;61032;50.782;6.818;2022-09-16T02:04:30;100047.84;;;13.68;75.48
72892;BME280;61032;50.782;6.818;2022-09-16T02:06:02;100042.44;;;13.75;75.51
72892;BME280;61032;50.782;6.818;2022-09-16T02:07:06;100040.13;;;13.77;75.41
72892;BME280;61032;50.782;6.818;2022-09-16T02:08:11;100048.84;;;13.80;75.39
72892;BME280;61032;50.782;6.818;2022-09-16T02:09:16;100050.00;;;13.79;75.52
72892;BME280;61032;50.782;6.818;2022-09-16T02:10:24;100046.16;;;13.83;75.54
72892;BME280;61032;50.782;6.818;2022-09-16T02:11:26;100045.66;;;13.77;75.46
72892;BME280;61032;50.782;6.818;2022-09-16T02:12:30;100044.56;;;13.82;75.61
72892;BME280;61032;50.782;6.818;2022-09-16T02:13:36;100043.84;;;13.85;75.65
72892;BME280;61032;50.782;6.818;2022-09-16T02:14:40;100043.91;;;13.89;75.43
72892;BME280;61032;50.782;6.818;2022-09-16T02:15:44;100041.16;;;13.89;75.31
72892;BME280;61032;50.782;6.818;2022-09-16T02:16:53;100038.84;;;13.91;75.29
72892;BME280;61032;50.782;6.818;2022-09-16T02:18:11;100037.97;;;13.87;75.42
72892;BME280;61032;50.782;6.818;2022-09-16T02:19:17;100040.72;;;13.87;75.33
72892;BME280;61032;50.782;6.818;2022-09-16T02:20:23;100038.69;;;13.84;75.46
72892;BME280;61032;50.782;6.818;2022-09-16T02:21:26;100037.81;;;13.80;75.48
72892;BME280;61032;50.782;6.818;2022-09-16T02:22:32;100033.94;;;13.84;75.64
72892;BME280;61032;50.782;6.818;2022-09-16T02:23:41;100035.91;;;13.84;75.49
72892;BME280;61032;50.782;6.818;2022-09-16T02:24:45;100035.84;;;13.80;75.71
72892;BME280;61032;50.782;6.818;2022-09-16T02:25:48;100039.84;;;13.83;75.51
72892;BME280;61032;50.782;6.818;2022-09-16T02:26:54;100037.34;;;13.77;75.84
72892;BME280;61032;50.782;6.818;2022-09-16T02:27:56;100043.59;;;13.74;76.01
72892;BME280;61032;50.782;6.818;2022-09-16T02:29:00;100038.53;;;13.76;75.73
72892;BME280;61032;50.782;6.818;2022-09-16T02:30:06;100033.44;;;13.79;76.00
72892;BME280;61032;50.782;6.818;2022-09-16T02:31:08;100035.84;;;13.80;75.74
72892;BME280;61032;50.782;6.818;2022-09-16T02:32:09;100041.72;;;13.79;76.05
72892;BME280;61032;50.782;6.818;2022-09-16T02:33:11;100037.06;;;13.83;75.91
72892;BME280;61032;50.782;6.818;2022-09-16T02:34:15;100034.75;;;13.85;75.72
72892;BME280;61032;50.782;6.818;2022-09-16T02:35:19;100041.00;;;13.82;75.62
72892;BME280;61032;50.782;6.818;2022-09-16T02:36:21;100032.72;;;13.82;75.88
72892;BME280;61032;50.782;6.818;2022-09-16T02:37:30;100039.41;;;13.81;75.73
72892;BME280;61032;50.782;6.818;2022-09-16T02:38:40;100042.09;;;13.77;75.70
72892;BME280;61032;50.782;6.818;2022-09-16T02:39:48;100039.41;;;13.81;75.83
72892;BME280;61032;50.782;6.818;2022-09-16T02:40:53;100034.69;;;13.81;75.85
72892;BME280;61032;50.782;6.818;2022-09-16T02:41:55;100042.69;;;13.86;75.92
72892;BME280;61032;50.782;6.818;2022-09-16T02:42:56;100040.03;;;13.93;75.46
72892;BME280;61032;50.782;6.818;2022-09-16T02:43:57;100035.72;;;13.92;75.23
72892;BME280;61032;50.782;6.818;2022-09-16T02:44:59;100035.31;;;13.94;75.14
72892;BME280;61032;50.782;6.818;2022-09-16T02:46:34;100035.31;;;13.94;75.18
72892;BME280;61032;50.782;6.818;2022-09-16T02:49:08;100038.03;;;13.90;75.04
72892;BME280;61032;50.782;6.818;2022-09-16T02:50:26;100034.16;;;13.95;75.39
72892;BME280;61032;50.782;6.818;2022-09-16T02:53:49;100030.19;;;13.92;75.01
72892;BME280;61032;50.782;6.818;2022-09-16T02:56:38;100024.25;;;13.94;75.27
72892;BME280;61032;50.782;6.818;2022-09-16T02:57:39;100031.03;;;13.96;74.88
72892;BME280;61032;50.782;6.818;2022-09-16T02:58:40;100029.44;;;13.95;74.76
72892;BME280;61032;50.782;6.818;2022-09-16T02:59:41;100025.50;;;13.96;74.99
72892;BME280;61032;50.782;6.818;2022-09-16T03:00:47;100025.50;;;13.96;74.82
72892;BME280;61032;50.782;6.818;2022-09-16T03:01:48;100027.47;;;13.96;74.89
72892;BME280;61032;50.782;6.818;2022-09-16T03:02:52;100033.34;;;13.94;74.94
72892;BME280;61032;50.782;6.818;2022-09-16T03:03:54;100025.94;;;13.98;74.88
72892;BME280;61032;50.782;6.818;2022-09-16T03:04:55;100020.34;;;13.95;74.97
72892;BME280;61032;50.782;6.818;2022-09-16T03:06:09;100024.69;;;13.96;74.83
72892;BME280;61032;50.782;6.818;2022-09-16T03:07:13;100031.34;;;13.91;74.86
72892;BME280;61032;50.782;6.818;2022-09-16T03:08:14;100025.81;;;13.91;74.74
72892;BME280;61032;50.782;6.818;2022-09-16T03:09:15;100028.94;;;13.90;74.71
72892;BME280;61032;50.782;6.818;2022-09-16T03:10:17;100027.69;;;13.87;74.72
72892;BME280;61032;50.782;6.818;2022-09-16T03:16:59;100024.34;;;13.78;74.98
72892;BME280;61032;50.782;6.818;2022-09-16T03:20:31;100020.50;;;13.83;74.86
72892;BME280;61032;50.782;6.818;2022-09-16T03:21:54;100015.53;;;13.72;74.71
72892;BME280;61032;50.782;6.818;2022-09-16T03:23:10;100019.84;;;13.70;75.19
72892;BME280;61032;50.782;6.818;2022-09-16T03:24:35;100012.38;;;13.70;75.16
72892;BME280;61032;50.782;6.818;2022-09-16T03:26:05;100015.25;;;13.77;75.05
72892;BME280;61032;50.782;6.818;2022-09-16T03:27:15;100016.41;;;13.76;74.52
72892;BME280;61032;50.782;6.818;2022-09-16T03:28:25;100015.53;;;13.72;74.60
72892;BME280;61032;50.782;6.818;2022-09-16T03:29:33;100012.41;;;13.74;74.63
72892;BME280;61032;50.782;6.818;2022-09-16T03:30:57;100015.63;;;13.76;74.42
72892;BME280;61032;50.782;6.818;2022-09-16T03:32:14;100014.25;;;13.66;74.63
72892;BME280;61032;50.782;6.818;2022-09-16T03:36:07;100012.22;;;13.63;74.90
72892;BME280;61032;50.782;6.818;2022-09-16T03:37:13;100008.38;;;13.68;74.55
72892;BME280;61032;50.782;6.818;2022-09-16T03:38:15;100006.25;;;13.61;74.92
72892;BME280;61032;50.782;6.818;2022-09-16T03:39:17;100005.09;;;13.62;75.02
72892;BME280;61032;50.782;6.818;2022-09-16T03:40:19;100006.69;;;13.63;75.09
72892;BME280;61032;50.782;6.818;2022-09-16T03:41:20;100001.78;;;13.57;75.01
72892;BME280;61032;50.782;6.818;2022-09-16T03:42:21;100003.31;;;13.54;75.32
72892;BME280;61032;50.782;6.818;2022-09-16T03:43:21;99999.41;;;13.55;75.37
72892;BME280;61032;50.782;6.818;2022-09-16T03:44:30;100008.78;;;13.51;75.39
72892;BME280;61032;50.782;6.818;2022-09-16T03:45:30;99999.31;;;13.52;75.86
72892;BME280;61032;50.782;6.818;2022-09-16T03:46:31;100001.00;;;13.56;75.78
72892;BME280;61032;50.782;6.818;2022-09-16T03:47:31;100000.13;;;13.52;75.60
72892;BME280;61032;50.782;6.818;2022-09-16T03:48:32;99999.25;;;13.48;75.64
72892;BME280;61032;50.782;6.818;2022-09-16T03:49:33;100001.59;;;13.46;75.77
72892;BME280;61032;50.782;6.818;2022-09-16T03:50:34;100002.31;;;13.43;75.97
72892;BME280;61032;50.782;6.818;2022-09-16T03:51:34;100011.13;;;13.49;75.88
72892;BME280;61032;50.782;6.818;2022-09-16T03:52:35;99998.50;;;13.51;75.84
72892;BME280;61032;50.782;6.818;2022-09-16T03:53:35;99997.78;;;13.54;75.77
72892;BME280;61032;50.782;6.818;2022-09-16T03:54:36;100004.91;;;13.55;75.41
72892;BME280;61032;50.782;6.818;2022-09-16T03:55:36;100003.75;;;13.56;75.48
72892;BME280;61032;50.782;6.818;2022-09-16T03:56:36;100011.69;;;13.58;75.60
72892;BME280;61032;50.782;6.818;2022-09-16T03:57:37;100009.72;;;13.58;75.43
72892;BME280;61032;50.782;6.818;2022-09-16T03:58:37;100005.00;;;13.59;75.74
72892;BME280;61032;50.782;6.818;2022-09-16T03:59:38;100006.97;;;13.58;75.41
72892;BME280;61032;50.782;6.818;2022-09-16T04:00:38;100012.75;;;13.53;75.28
72892;BME280;61032;50.782;6.818;2022-09-16T04:01:38;100015.16;;;13.55;75.38
72892;BME280;61032;50.782;6.818;2022-09-16T04:02:38;100008.84;;;13.54;75.38
72892;BME280;61032;50.782;6.818;2022-09-16T04:03:39;100013.06;;;13.48;75.78
72892;BME280;61032;50.782;6.818;2022-09-16T04:04:40;100008.47;;;13.36;75.93
72892;BME280;61032;50.782;6.818;2022-09-16T04:05:43;100004.03;;;13.32;76.13
72892;BME280;61032;50.782;6.818;2022-09-16T04:06:43;100000.47;;;13.31;76.40
72892;BME280;61032;50.782;6.818;2022-09-16T04:07:44;99999.66;;;13.31;76.38
72892;BME280;61032;50.782;6.818;2022-09-16T04:08:44;99994.56;;;13.33;76.53
72892;BME280;61032;50.782;6.818;2022-09-16T04:09:44;100009.97;;;13.34;76.10
72892;BME280;61032;50.782;6.818;2022-09-16T04:10:59;99998.22;;;13.37;76.31
72892;BME280;61032;50.782;6.818;2022-09-16T04:12:00;99998.59;;;13.35;76.40
72892;BME280;61032;50.782;6.818;2022-09-16T04:13:00;100006.50;;;13.37;75.94
72892;BME280;61032;50.782;6.818;2022-09-16T04:14:02;100006.16;;;13.38;76.00
72892;BME280;61032;50.782;6.818;2022-09-16T04:15:03;100006.16;;;13.38;76.02
72892;BME280;61032;50.782;6.818;2022-09-16T04:16:04;100004.19;;;13.39;76.04
72892;BME280;61032;50.782;6.818;2022-09-16T04:17:04;99998.75;;;13.43;75.73
72892;BME280;61032;50.782;6.818;2022-09-16T04:18:04;100002.31;;;13.43;75.42
72892;BME280;61032;50.782;6.818;2022-09-16T04:19:05;100002.66;;;13.41;75.28
72892;BME280;61032;50.782;6.818;2022-09-16T04:20:06;100005.44;;;13.41;75.65
72892;BME280;61032;50.782;6.818;2022-09-16T04:21:08;100001.88;;;13.41;75.68
72892;BME280;61032;50.782;6.818;2022-09-16T04:22:08;99999.59;;;13.27;75.57
72892;BME280;61032;50.782;6.818;2022-09-16T04:23:09;100004.75;;;13.29;75.53
72892;BME280;61032;50.782;6.818;2022-09-16T04:24:09;99999.16;;;13.25;75.76
72892;BME280;61032;50.782;6.818;2022-09-16T04:25:10;100002.72;;;13.26;75.92
72892;BME280;61032;50.782;6.818;2022-09-16T04:26:11;100005.03;;;13.24;76.01
72892;BME280;61032;50.782;6.818;2022-09-16T04:27:11;100001.13;;;13.25;76.32
72892;BME280;61032;50.782;6.818;2022-09-16T04:28:11;100001.91;;;13.25;76.28
72892;BME280;61032;50.782;6.818;2022-09-16T04:29:12;100002.38;;;13.27;75.92
72892;BME280;61032;50.782;6.818;2022-09-16T04:30:12;100000.75;;;13.26;75.92
72892;BME280;61032;50.782;6.818;2022-09-16T04:31:14;100003.59;;;13.30;75.83
72892;BME280;61032;50.782;6.818;2022-09-16T04:32:14;100000.47;;;13.31;75.67
72892;BME280;61032;50.782;6.818;2022-09-16T04:33:15;99995.00;;;13.35;75.70
72892;BME280;61032;50.782;6.818;2022-09-16T04:34:15;100002.41;;;13.31;75.25
72892;BME280;61032;50.782;6.818;2022-09-16T04:35:15;100004.47;;;13.34;75.35
72892;BME280;61032;50.782;6.818;2022-09-16T04:36:19;100002.81;;;13.29;75.44
72892;BME280;61032;50.782;6.818;2022-09-16T04:37:19;100003.59;;;13.30;75.66
72892;BME280;61032;50.782;6.818;2022-09-16T04:38:19;100000.03;;;13.29;75.32
72892;BME280;61032;50.782;6.818;2022-09-16T04:39:20;100000.47;;;13.31;75.21
72892;BME280;61032;50.782;6.818;2022-09-16T04:40:20;99999.66;;;13.31;75.03
72892;BME280;61032;50.782;6.818;2022-09-16T04:41:23;99995.31;;;13.30;75.38
72892;BME280;61032;50.782;6.818;2022-09-16T04:42:23;99990.56;;;13.30;75.33
72892;BME280;61032;50.782;6.818;2022-09-16T04:43:24;99992.91;;;13.28;75.30
72892;BME280;61032;50.782;6.818;2022-09-16T04:44:24;99994.09;;;13.27;75.42
72892;BME280;61032;50.782;6.818;2022-09-16T04:45:26;99999.25;;;13.29;75.12
72892;BME280;61032;50.782;6.818;2022-09-16T04:46:29;99994.13;;;13.31;75.26
72892;BME280;61032;50.782;6.818;2022-09-16T04:47:30;99993.28;;;13.27;74.98
72892;BME280;61032;50.782;6.818;2022-09-16T04:48:30;99996.41;;;13.25;75.14
72892;BME280;61032;50.782;6.818;2022-09-16T04:49:30;99998.72;;;13.23;75.39
72892;BME280;61032;50.782;6.818;2022-09-16T04:50:31;99998.28;;;13.21;75.17
72892;BME280;61032;50.782;6.818;2022-09-16T04:51:31;99995.88;;;13.20;75.38
72892;BME280;61032;50.782;6.818;2022-09-16T04:52:32;99999.22;;;13.13;75.00
72892;BME280;61032;50.782;6.818;2022-09-16T04:53:32;99994.63;;;13.17;74.89
72892;BME280;61032;50.782;6.818;2022-09-16T04:54:32;100005.06;;;13.08;74.78
72892;BME280;61032;50.782;6.818;2022-09-16T04:55:33;100007.88;;;13.12;75.14
72892;BME280;61032;50.782;6.818;2022-09-16T04:56:33;100002.69;;;13.10;75.21
72892;BME280;61032;50.782;6.818;2022-09-16T04:57:34;100003.09;;;13.08;75.21
72892;BME280;61032;50.782;6.818;2022-09-16T04:58:35;100004.66;;;13.09;75.23
72892;BME280;61032;50.782;6.818;2022-09-16T04:59:35;99995.88;;;13.04;75.43
72892;BME280;61032;50.782;6.818;2022-09-16T05:00:36;99995.16;;;13.07;75.26
72892;BME280;61032;50.782;6.818;2022-09-16T05:01:37;99996.38;;;13.09;75.13
72892;BME280;61032;50.782;6.818;2022-09-16T05:02:38;100001.19;;;13.13;74.92
72892;BME280;61032;50.782;6.818;2022-09-16T05:03:39;99997.28;;;13.14;74.54
72892;BME280;61032;50.782;6.818;2022-09-16T05:04:40;100003.34;;;13.19;74.68
72892;BME280;61032;50.782;6.818;2022-09-16T05:05:40;100002.56;;;13.19;74.70
72892;BME280;61032;50.782;6.818;2022-09-16T05:06:40;100001.84;;;13.22;74.41
72892;BME280;61032;50.782;6.818;2022-09-16T05:07:41;100005.41;;;13.22;74.37
72892;BME280;61032;50.782;6.818;2022-09-16T05:08:41;100006.28;;;13.26;74.28
72892;BME280;61032;50.782;6.818;2022-09-16T05:09:42;100008.88;;;13.19;73.70
72892;BME280;61032;50.782;6.818;2022-09-16T05:10:42;100015.44;;;13.15;73.86
72892;BME280;61032;50.782;6.818;2022-09-16T05:11:42;100016.16;;;13.12;74.18
72892;BME280;61032;50.782;6.818;2022-09-16T05:12:43;100018.19;;;13.15;74.12
72892;BME280;61032;50.782;6.818;2022-09-16T05:13:44;100013.50;;;13.15;74.26
72892;BME280;61032;50.782;6.818;2022-09-16T05:14:44;100014.63;;;13.14;74.17
72892;BME280;61032;50.782;6.818;2022-09-16T05:15:44;100006.25;;;13.11;74.31
72892;BME280;61032;50.782;6.818;2022-09-16T05:16:45;100007.88;;;13.12;74.70
72892;BME280;61032;50.782;6.818;2022-09-16T05:17:45;100007.50;;;13.13;74.80
72892;BME280;61032;50.782;6.818;2022-09-16T05:18:48;100010.19;;;13.09;74.75
72892;BME280;61032;50.782;6.818;2022-09-16T05:19:49;100005.75;;;13.05;74.58
72892;BME280;61032;50.782;6.818;2022-09-16T05:20:55;100005.41;;;13.06;74.32
72892;BME280;61032;50.782;6.818;2022-09-16T05:21:59;100008.88;;;13.03;74.72
72892;BME280;61032;50.782;6.818;2022-09-16T05:23:07;100003.81;;;13.05;74.87
72892;BME280;61032;50.782;6.818;2022-09-16T05:24:09;100005.31;;;13.03;74.77
72892;BME280;61032;50.782;6.818;2022-09-16T05:25:10;100004.25;;;13.07;74.44
72892;BME280;61032;50.782;6.818;2022-09-16T05:26:18;100003.09;;;13.08;73.92
72892;BME280;61032;50.782;6.818;2022-09-16T05:27:19;100010.03;;;13.02;74.22
72892;BME280;61032;50.782;6.818;2022-09-16T05:28:20;100009.22;;;13.02;74.33
72892;BME280;61032;50.782;6.818;2022-09-16T05:29:21;100008.44;;;13.01;74.00
72892;BME280;61032;50.782;6.818;2022-09-16T05:30:22;100012.44;;;13.04;73.95
72892;BME280;61032;50.782;6.818;2022-09-16T05:31:24;100009.31;;;13.05;73.82
72892;BME280;61032;50.782;6.818;2022-09-16T05:32:27;100005.06;;;13.08;73.83
72892;BME280;61032;50.782;6.818;2022-09-16T05:33:28;100008.53;;;13.05;73.41
72892;BME280;61032;50.782;6.818;2022-09-16T05:34:28;100007.00;;;13.07;73.65
72892;BME280;61032;50.782;6.818;2022-09-16T05:35:28;100012.72;;;12.99;73.30
72892;BME280;61032;50.782;6.818;2022-09-16T05:36:32;100002.66;;;13.06;73.38
72892;BME280;61032;50.782;6.818;2022-09-16T05:37:32;100005.84;;;13.08;73.50
72892;BME280;61032;50.782;6.818;2022-09-16T05:38:33;100014.19;;;13.12;73.12
72892;BME280;61032;50.782;6.818;2022-09-16T05:39:33;100009.47;;;13.13;72.80
72892;BME280;61032;50.782;6.818;2022-09-16T05:40:34;100005.84;;;13.08;73.01
72892;BME280;61032;50.782;6.818;2022-09-16T05:41:34;100003.94;;;13.13;72.73
72892;BME280;61032;50.782;6.818;2022-09-16T05:42:34;100004.75;;;13.13;73.02
72892;BME280;61032;50.782;6.818;2022-09-16T05:43:35;100013.50;;;13.15;72.79
72892;BME280;61032;50.782;6.818;2022-09-16T05:44:36;100012.00;;;13.18;72.89
72892;BME280;61032;50.782;6.818;2022-09-16T05:45:36;100011.34;;;13.24;72.52
72892;BME280;61032;50.782;6.818;2022-09-16T05:46:36;100009.66;;;13.20;72.56
72892;BME280;61032;50.782;6.818;2022-09-16T05:47:39;100014.13;;;13.24;72.59
72892;BME280;61032;50.782;6.818;2022-09-16T05:48:39;100008.97;;;13.23;72.53
72892;BME280;61032;50.782;6.818;2022-09-16T05:49:40;100014.03;;;13.21;72.75
72892;BME280;61032;50.782;6.818;2022-09-16T05:50:40;100015.00;;;13.28;72.83
72892;BME280;61032;50.782;6.818;2022-09-16T05:51:40;100013.91;;;13.33;72.88
72892;BME280;61032;50.782;6.818;2022-09-16T05:52:41;100004.19;;;13.39;72.39
72892;BME280;61032;50.782;6.818;2022-09-16T05:53:42;100007.81;;;13.43;72.35
72892;BME280;61032;50.782;6.818;2022-09-16T05:54:42;100015.84;;;13.48;71.68
72892;BME280;61032;50.782;6.818;2022-09-16T05:55:53;100015.84;;;13.48;71.62
72892;BME280;61032;50.782;6.818;2022-09-16T05:56:53;100007.47;;;13.45;71.89
72892;BME280;61032;50.782;6.818;2022-09-16T05:57:54;100010.50;;;13.39;72.19
72892;BME280;61032;50.782;6.818;2022-09-16T05:58:57;100008.63;;;13.44;71.89
72892;BME280;61032;50.782;6.818;2022-09-16T05:59:57;100012.72;;;13.50;71.76
72892;BME280;61032;50.782;6.818;2022-09-16T06:00:59;100015.88;;;13.52;71.42
72892;BME280;61032;50.782;6.818;2022-09-16T06:02:00;100006.22;;;13.42;71.76
72892;BME280;61032;50.782;6.818;2022-09-16T06:03:00;100013.88;;;13.49;71.67
72892;BME280;61032;50.782;6.818;2022-09-16T06:04:03;100011.47;;;13.47;71.36
72892;BME280;61032;50.782;6.818;2022-09-16T06:05:04;100011.97;;;13.53;71.61
72892;BME280;61032;50.782;6.818;2022-09-16T06:06:30;100002.47;;;13.50;71.62
72892;BME280;61032;50.782;6.818;2022-09-16T06:07:30;100005.78;;;13.40;71.64
72892;BME280;61032;50.782;6.818;2022-09-16T06:08:33;100010.88;;;13.38;71.56
72892;BME280;61032;50.782;6.818;2022-09-16T06:09:34;100006.84;;;13.35;71.87
72892;BME280;61032;50.782;6.818;2022-09-16T06:10:39;100000.41;;;13.28;72.07
72892;BME280;61032;50.782;6.818;2022-09-16T06:11:42;100000.94;;;13.18;72.26
72892;BME280;61032;50.782;6.818;2022-09-16T06:12:43;100011.44;;;13.28;72.26
72892;BME280;61032;50.782;6.818;2022-09-16T06:13:43;100007.94;;;13.31;72.34
72892;BME280;61032;50.782;6.818;2022-09-16T06:14:43;100008.25;;;13.26;72.11
72892;BME280;61032;50.782;6.818;2022-09-16T06:15:48;100009.41;;;13.25;72.62
72892;BME280;61032;50.782;6.818;2022-09-16T06:16:50;100011.88;;;13.30;72.60
72892;BME280;61032;50.782;6.818;2022-09-16T06:17:50;100016.38;;;13.38;72.28
72892;BME280;61032;50.782;6.818;2022-09-16T06:18:52;100008.19;;;13.41;71.82